Time;durP1;ratioP1;P1;durP2;ratioP2;P2;SDS_P1;SDS_P2;PMS_P1;PMS_P2;Temp;Humidity;BMP_temperature;BMP_pressure;BME280_temperature;BME280_humidity;BME280_pressure;Samples;Min_cycle;Max_cycle;Signal;HPM_P1;HPM_P2
2021/12/03 00:01:33;;;;;;;30.13;16.20;;;1.10;99.90;;;;;;5075706;28;20048;-69
2021/12/03 00:04:01;;;;;;;29.38;15.85;;;1.00;99.90;;;;;;5073885;28;20498;-69
2021/12/03 00:06:34;;;;;;;25.80;15.48;;;1.20;99.90;;;;;;5105217;28;20035;-69
2021/12/03 00:09:03;;;;;;;26.83;15.27;;;1.10;99.90;;;;;;5097141;28;20417;-69
2021/12/03 00:11:30;;;;;;;26.63;15.30;;;1.20;99.90;;;;;;5110566;28;20486;-69
2021/12/03 00:13:57;;;;;;;30.30;16.20;;;1.20;99.90;;;;;;5113979;28;20047;-69
2021/12/03 00:16:25;;;;;;;29.70;14.82;;;1.20;99.90;;;;;;5113184;28;20058;-69
2021/12/03 00:18:52;;;;;;;28.90;15.48;;;1.20;99.90;;;;;;5096086;28;20404;-69
2021/12/03 00:21:22;;;;;;;31.92;15.70;;;1.20;99.90;;;;;;5114302;28;20482;-69
2021/12/03 00:23:49;;;;;;;25.38;15.18;;;1.20;99.90;;;;;;5113548;28;20078;-69
2021/12/03 00:26:16;;;;;;;29.05;15.80;;;1.20;99.90;;;;;;5114811;28;20039;-70
2021/12/03 00:28:44;;;;;;;28.40;15.57;;;1.20;99.90;;;;;;5113927;28;20039;-69
2021/12/03 00:31:13;;;;;;;28.60;14.98;;;1.30;99.90;;;;;;5096518;28;20046;-69
2021/12/03 00:33:41;;;;;;;26.75;13.93;;;1.40;99.90;;;;;;5113795;28;20044;-69
2021/12/03 00:36:09;;;;;;;27.33;16.08;;;1.40;99.90;;;;;;5100334;28;20490;-69
2021/12/03 00:38:44;;;;;;;26.65;15.25;;;1.40;99.90;;;;;;5075383;28;20044;-69
2021/12/03 00:41:15;;;;;;;27.77;15.38;;;1.40;99.90;;;;;;5113130;28;20047;-69
2021/12/03 00:43:46;;;;;;;28.95;16.23;;;1.40;99.90;;;;;;5095824;28;20458;-69
2021/12/03 00:46:17;;;;;;;26.85;14.73;;;1.40;99.90;;;;;;5113948;28;20112;-70
2021/12/03 00:48:49;;;;;;;25.98;15.15;;;1.40;99.90;;;;;;5113925;28;20047;-69
2021/12/03 00:51:18;;;;;;;28.25;15.65;;;1.50;99.90;;;;;;5113609;28;20126;-69
2021/12/03 00:53:46;;;;;;;27.00;14.90;;;1.50;99.90;;;;;;5113736;28;20131;-69
2021/12/03 00:56:15;;;;;;;26.38;15.85;;;1.50;99.90;;;;;;5101470;28;20055;-69
2021/12/03 00:58:43;;;;;;;28.27;15.23;;;1.60;99.90;;;;;;5093073;28;20498;-69
2021/12/03 01:01:10;;;;;;;29.80;15.57;;;1.50;99.90;;;;;;5114310;28;20043;-69
2021/12/03 01:03:38;;;;;;;27.30;15.50;;;1.50;99.90;;;;;;5093389;28;20119;-69
2021/12/03 01:06:07;;;;;;;26.77;15.65;;;1.50;99.90;;;;;;5104181;28;20126;-69
2021/12/03 01:08:37;;;;;;;25.13;14.80;;;1.50;99.90;;;;;;5110250;28;20040;-69
2021/12/03 01:11:06;;;;;;;24.63;14.50;;;1.50;99.90;;;;;;5093552;28;20052;-69
2021/12/03 01:13:35;;;;;;;25.60;14.30;;;1.50;99.90;;;;;;5109860;28;20051;-69
2021/12/03 01:16:03;;;;;;;24.13;14.77;;;1.50;99.90;;;;;;5095578;28;20059;-69
2021/12/03 01:18:32;;;;;;;25.73;14.60;;;1.50;99.90;;;;;;5113438;28;20453;-69
2021/12/03 01:21:00;;;;;;;22.48;13.45;;;1.40;99.90;;;;;;5106473;28;20514;-69
2021/12/03 01:23:27;;;;;;;24.75;14.15;;;1.50;99.90;;;;;;5071699;28;20187;-69
2021/12/03 01:25:54;;;;;;;26.40;14.88;;;1.50;99.90;;;;;;5099674;28;20047;-69
2021/12/03 01:28:23;;;;;;;24.83;14.20;;;1.40;99.90;;;;;;5112274;28;20050;-69
2021/12/03 01:30:52;;;;;;;22.52;14.32;;;1.40;99.90;;;;;;5094320;28;20110;-70
2021/12/03 01:33:19;;;;;;;22.77;13.77;;;1.30;99.90;;;;;;5113754;28;20048;-69
2021/12/03 01:35:47;;;;;;;21.38;11.98;;;1.30;99.90;;;;;;5113131;28;20039;-70
2021/12/03 01:38:14;;;;;;;22.13;13.15;;;1.20;99.90;;;;;;5113176;28;20054;-69
2021/12/03 01:40:42;;;;;;;22.73;13.02;;;1.20;99.90;;;;;;5111498;28;20774;-69
2021/12/03 01:43:12;;;;;;;22.77;12.57;;;1.20;99.90;;;;;;5112862;28;20363;-68
2021/12/03 01:45:41;;;;;;;19.40;11.52;;;1.30;99.90;;;;;;5080451;28;20048;-69
2021/12/03 01:48:08;;;;;;;19.30;11.43;;;1.30;99.90;;;;;;5112926;28;20459;-69
2021/12/03 01:50:39;;;;;;;18.27;10.73;;;1.30;99.90;;;;;;5094944;28;20048;-69
2021/12/03 01:53:09;;;;;;;19.20;11.48;;;1.30;99.90;;;;;;5097277;28;20044;-69
2021/12/03 01:55:37;;;;;;;17.15;10.65;;;1.30;99.90;;;;;;5104562;28;20040;-69
2021/12/03 01:58:05;;;;;;;18.15;10.30;;;1.30;99.90;;;;;;5107116;28;20129;-69
2021/12/03 02:00:45;;;;;;;19.23;10.70;;;1.30;99.90;;;;;;5112716;28;20047;-69
2021/12/03 02:03:14;;;;;;;18.25;10.55;;;1.20;99.90;;;;;;5112407;28;20500;-69
2021/12/03 02:05:43;;;;;;;16.23;10.15;;;1.30;99.90;;;;;;5108259;28;20139;-69
2021/12/03 02:08:11;;;;;;;17.83;10.20;;;1.30;99.90;;;;;;5107976;28;20047;-69
2021/12/03 02:10:39;;;;;;;16.55;10.05;;;1.20;99.90;;;;;;5112560;28;20043;-69
2021/12/03 02:13:07;;;;;;;15.50;10.13;;;1.20;99.90;;;;;;5112307;28;20532;-69
2021/12/03 02:15:34;;;;;;;19.73;10.43;;;1.20;99.90;;;;;;5112578;28;20032;-69
2021/12/03 02:18:01;;;;;;;17.77;10.30;;;1.20;99.90;;;;;;5112280;28;20440;-69
2021/12/03 02:20:29;;;;;;;18.73;10.40;;;1.20;99.90;;;;;;5112366;28;20496;-69
2021/12/03 02:22:56;;;;;;;18.10;11.05;;;1.20;99.90;;;;;;5112386;28;20047;-70
2021/12/03 02:25:26;;;;;;;20.83;10.52;;;1.10;99.90;;;;;;5080534;28;20324;-69
2021/12/03 02:27:56;;;;;;;18.70;10.40;;;1.20;99.90;;;;;;5103409;28;20032;-69
2021/12/03 02:30:25;;;;;;;15.30;9.98;;;1.10;99.90;;;;;;5087390;28;20058;-69
2021/12/03 02:32:53;;;;;;;16.80;9.95;;;1.10;99.90;;;;;;5105189;28;20487;-69
2021/12/03 02:35:22;;;;;;;15.25;9.73;;;1.20;99.90;;;;;;5056172;28;20044;-69
2021/12/03 02:37:51;;;;;;;17.60;10.23;;;1.20;99.90;;;;;;5091857;28;20125;-70
2021/12/03 02:40:21;;;;;;;19.50;10.40;;;1.20;99.90;;;;;;5091966;28;20044;-69
2021/12/03 02:42:49;;;;;;;19.48;11.40;;;1.10;99.90;;;;;;5090812;28;20036;-69
2021/12/03 02:45:17;;;;;;;17.70;11.05;;;1.20;99.90;;;;;;5084392;28;20047;-69
2021/12/03 02:47:45;;;;;;;16.27;9.93;;;1.20;99.90;;;;;;5094072;28;20444;-69
2021/12/03 02:50:14;;;;;;;17.77;10.07;;;1.20;99.90;;;;;;5100691;28;20067;-69
2021/12/03 02:52:46;;;;;;;18.27;10.70;;;1.20;99.90;;;;;;5091574;28;20220;-69
2021/12/03 02:55:13;;;;;;;18.40;10.95;;;1.20;99.90;;;;;;5077596;28;20050;-69
2021/12/03 02:57:41;;;;;;;18.45;11.02;;;1.20;99.90;;;;;;5081796;28;20040;-70
2021/12/03 03:00:14;;;;;;;21.67;11.95;;;1.20;99.90;;;;;;5073285;28;20317;-69
2021/12/03 03:02:42;;;;;;;19.80;11.18;;;1.20;99.90;;;;;;5089594;28;20051;-69
2021/12/03 03:05:11;;;;;;;22.48;12.07;;;1.20;99.90;;;;;;5111330;28;20119;-69
2021/12/03 03:07:39;;;;;;;19.45;11.00;;;1.20;99.90;;;;;;5109626;28;20123;-69
2021/12/03 03:10:10;;;;;;;24.33;12.13;;;1.20;99.90;;;;;;5093628;28;20098;-69
2021/12/03 03:12:38;;;;;;;22.73;11.98;;;1.20;99.90;;;;;;5096543;28;20050;-69
2021/12/03 03:15:07;;;;;;;20.70;12.40;;;1.20;99.90;;;;;;5096903;28;20438;-69
2021/12/03 03:17:34;;;;;;;21.08;12.07;;;1.10;99.90;;;;;;5091165;28;20122;-69
2021/12/03 03:20:03;;;;;;;23.67;12.90;;;1.10;99.90;;;;;;5090924;28;20044;-69
2021/12/03 03:22:30;;;;;;;21.67;11.98;;;1.10;99.90;;;;;;5094736;28;20039;-69
2021/12/03 03:25:00;;;;;;;22.38;12.20;;;1.20;99.90;;;;;;5079640;28;20098;-69
2021/12/03 03:27:29;;;;;;;20.98;11.88;;;1.20;99.90;;;;;;5089240;28;20040;-69
2021/12/03 03:29:57;;;;;;;21.23;11.68;;;1.20;99.90;;;;;;5102639;28;20050;-69
2021/12/03 03:32:24;;;;;;;22.23;12.93;;;1.10;99.90;;;;;;5100650;28;20036;-69
2021/12/03 03:34:52;;;;;;;25.52;13.45;;;1.20;99.90;;;;;;5090965;28;20529;-69
2021/12/03 03:37:19;;;;;;;24.38;13.55;;;1.10;99.90;;;;;;5073225;28;20526;-69
2021/12/03 03:39:47;;;;;;;22.73;12.95;;;1.10;99.90;;;;;;5084845;28;20040;-69
2021/12/03 03:42:14;;;;;;;21.88;13.00;;;1.10;99.90;;;;;;5092654;28;20031;-69
2021/12/03 03:44:42;;;;;;;23.17;12.27;;;1.20;99.90;;;;;;5089847;28;20040;-69
2021/12/03 03:47:11;;;;;;;23.33;12.93;;;1.20;99.90;;;;;;5089221;28;20046;-70
2021/12/03 03:49:38;;;;;;;26.33;13.25;;;1.20;99.90;;;;;;5089324;28;20052;-70
2021/12/03 03:52:07;;;;;;;24.48;13.88;;;1.20;99.90;;;;;;5100253;28;20056;-69
2021/12/03 03:54:34;;;;;;;23.20;11.85;;;1.20;99.90;;;;;;5094854;28;20059;-69
2021/12/03 03:57:03;;;;;;;21.00;12.55;;;1.20;99.90;;;;;;5091901;28;20218;-69
2021/12/03 03:59:30;;;;;;;21.92;13.15;;;1.30;99.90;;;;;;5084830;28;20456;-69
2021/12/03 04:01:58;;;;;;;25.13;13.50;;;1.20;99.90;;;;;;5105657;28;20036;-69
2021/12/03 04:04:25;;;;;;;24.30;13.07;;;1.20;99.90;;;;;;5100615;28;20155;-69
2021/12/03 04:06:53;;;;;;;24.98;13.82;;;1.20;99.90;;;;;;5109184;28;20031;-69
2021/12/03 04:09:21;;;;;;;24.30;13.88;;;1.20;99.90;;;;;;5107562;28;20058;-69
2021/12/03 04:11:48;;;;;;;22.33;13.30;;;1.30;99.90;;;;;;5082076;28;20122;-69
2021/12/03 04:14:16;;;;;;;26.58;14.05;;;1.30;99.90;;;;;;5102783;28;20044;-70
2021/12/03 04:16:44;;;;;;;26.10;13.15;;;1.30;99.90;;;;;;5089684;28;20040;-69
2021/12/03 04:19:11;;;;;;;22.58;13.25;;;1.30;99.90;;;;;;5092434;28;20467;-69
2021/12/03 04:21:38;;;;;;;24.25;12.77;;;1.30;99.90;;;;;;5090965;28;20044;-69
2021/12/03 04:24:07;;;;;;;23.77;12.05;;;1.30;99.90;;;;;;5102181;28;20415;-69
2021/12/03 04:26:34;;;;;;;25.75;13.95;;;1.30;99.90;;;;;;5088547;28;20044;-69
2021/12/03 04:29:02;;;;;;;23.92;13.75;;;1.30;99.90;;;;;;5094458;28;20110;-69
2021/12/03 04:31:29;;;;;;;22.92;12.23;;;1.30;99.90;;;;;;5085844;28;20036;-69
2021/12/03 04:33:57;;;;;;;22.83;13.05;;;1.30;99.90;;;;;;5092303;28;20098;-69
2021/12/03 04:36:24;;;;;;;26.23;14.38;;;1.20;99.90;;;;;;5089700;28;20392;-69
2021/12/03 04:38:51;;;;;;;23.88;13.48;;;1.20;99.90;;;;;;5088978;28;20044;-69
2021/12/03 04:41:19;;;;;;;24.48;12.85;;;1.20;99.90;;;;;;5093134;28;20397;-69
2021/12/03 04:43:46;;;;;;;22.58;11.35;;;1.10;99.90;;;;;;5090217;28;20036;-69
2021/12/03 04:46:13;;;;;;;20.80;12.15;;;1.10;99.90;;;;;;5088962;28;20043;-69
2021/12/03 04:48:41;;;;;;;24.48;13.77;;;1.00;99.90;;;;;;5089969;28;20615;-70
2021/12/03 04:51:09;;;;;;;20.77;12.15;;;1.00;99.90;;;;;;5071529;28;20055;-70
2021/12/03 04:53:36;;;;;;;22.00;12.10;;;1.10;99.90;;;;;;5097080;28;20055;-70
2021/12/03 04:56:03;;;;;;;20.85;12.40;;;1.10;99.90;;;;;;5072180;28;20129;-69
2021/12/03 04:58:31;;;;;;;20.08;11.43;;;1.10;99.90;;;;;;5104317;28;20043;-69
2021/12/03 05:00:59;;;;;;;20.88;11.30;;;1.00;99.90;;;;;;5085714;28;20521;-69
2021/12/03 05:03:29;;;;;;;21.77;12.10;;;1.00;99.90;;;;;;5091393;28;20067;-69
2021/12/03 05:06:00;;;;;;;20.40;10.98;;;1.10;99.90;;;;;;5094002;28;20098;-69
2021/12/03 05:08:29;;;;;;;21.83;10.90;;;1.10;99.90;;;;;;5093701;28;20123;-69
2021/12/03 05:10:58;;;;;;;17.88;10.02;;;1.10;99.90;;;;;;5098297;28;20520;-69
2021/12/03 05:13:28;;;;;;;15.00;8.90;;;1.00;99.90;;;;;;5098534;28;20040;-69
2021/12/03 05:15:59;;;;;;;16.45;9.95;;;1.00;99.90;;;;;;5042004;28;20463;-69
2021/12/03 05:18:28;;;;;;;18.27;10.48;;;1.00;99.90;;;;;;5098160;28;20122;-69
2021/12/03 05:21:00;;;;;;;19.38;11.63;;;1.00;99.90;;;;;;5093616;28;20116;-69
2021/12/03 05:23:29;;;;;;;23.48;11.40;;;1.00;99.90;;;;;;5103553;28;20425;-69
2021/12/03 05:25:57;;;;;;;19.63;9.57;;;0.90;99.90;;;;;;5096913;28;20056;-69
2021/12/03 05:28:26;;;;;;;19.65;10.85;;;0.90;99.90;;;;;;5094613;28;20127;-69
2021/12/03 05:30:55;;;;;;;20.08;11.75;;;0.90;99.90;;;;;;5078426;28;20040;-69
2021/12/03 05:33:22;;;;;;;17.25;10.20;;;1.00;99.90;;;;;;5092034;28;20032;-69
2021/12/03 05:35:50;;;;;;;19.38;10.77;;;1.00;99.90;;;;;;5096913;28;20052;-69
2021/12/03 05:38:17;;;;;;;20.98;10.77;;;0.90;99.90;;;;;;5101829;28;20047;-69
2021/12/03 05:40:45;;;;;;;21.90;11.95;;;0.90;99.90;;;;;;5102506;28;20043;-69
2021/12/03 05:43:16;;;;;;;20.15;11.77;;;0.90;99.90;;;;;;5102279;28;20067;-69
2021/12/03 05:45:44;;;;;;;20.40;11.82;;;0.90;99.90;;;;;;5098959;28;20032;-69
2021/12/03 05:48:13;;;;;;;20.45;11.10;;;0.90;99.90;;;;;;5074476;28;20291;-69
2021/12/03 05:50:42;;;;;;;18.70;9.57;;;1.00;99.90;;;;;;5096322;28;20048;-69
2021/12/03 05:53:09;;;;;;;15.45;9.43;;;0.90;99.90;;;;;;5083208;28;20044;-69
2021/12/03 05:55:37;;;;;;;21.95;11.68;;;0.90;99.90;;;;;;5090796;28;20063;-69
2021/12/03 05:58:04;;;;;;;19.90;10.88;;;0.90;99.90;;;;;;5108657;28;20072;-69
2021/12/03 06:00:40;;;;;;;17.38;9.93;;;0.80;99.90;;;;;;5095451;28;20032;-69
2021/12/03 06:03:09;;;;;;;18.25;10.77;;;0.80;99.90;;;;;;5098686;28;20040;-69
2021/12/03 06:05:36;;;;;;;16.98;10.07;;;0.80;99.90;;;;;;5106940;28;20062;-69
2021/12/03 06:08:04;;;;;;;16.65;10.43;;;0.90;99.90;;;;;;5110425;28;20414;-69
2021/12/03 06:10:31;;;;;;;19.70;10.55;;;0.90;99.90;;;;;;5104851;28;20045;-69
2021/12/03 06:13:00;;;;;;;18.45;9.88;;;0.90;99.90;;;;;;5098909;28;20050;-69
2021/12/03 06:15:27;;;;;;;15.15;8.50;;;0.90;99.90;;;;;;5108796;28;20043;-69
2021/12/03 06:17:56;;;;;;;15.25;8.77;;;0.80;99.90;;;;;;5092371;28;20491;-69
2021/12/03 06:20:24;;;;;;;14.07;8.45;;;0.70;99.90;;;;;;5100173;28;20036;-69
2021/12/03 06:22:51;;;;;;;13.45;8.30;;;0.60;99.90;;;;;;5105084;28;20050;-69
2021/12/03 06:25:19;;;;;;;16.02;9.98;;;0.50;99.90;;;;;;5112359;28;20055;-69
2021/12/03 06:27:47;;;;;;;18.05;9.50;;;0.40;99.90;;;;;;5104835;28;20117;-70
2021/12/03 06:30:18;;;;;;;18.27;10.50;;;0.30;99.90;;;;;;5096476;28;20039;-69
2021/12/03 06:32:46;;;;;;;19.02;10.15;;;0.30;99.90;;;;;;5105858;28;20437;-69
2021/12/03 06:35:15;;;;;;;18.38;10.85;;;0.30;99.90;;;;;;5108934;28;20040;-69
2021/12/03 06:37:43;;;;;;;21.42;11.63;;;0.30;99.90;;;;;;5106932;28;20488;-69
2021/12/03 06:40:16;;;;;;;19.88;11.32;;;0.30;99.90;;;;;;5096877;28;20177;-69
2021/12/03 06:42:44;;;;;;;20.15;12.00;;;0.40;99.90;;;;;;5101714;28;20043;-69
2021/12/03 06:45:12;;;;;;;18.45;10.27;;;0.40;99.90;;;;;;5103591;28;20052;-69
2021/12/03 06:47:40;;;;;;;17.42;10.00;;;0.30;99.90;;;;;;5109417;28;20040;-69
2021/12/03 06:50:10;;;;;;;17.90;9.68;;;0.30;99.90;;;;;;5087614;28;20075;-69
2021/12/03 06:52:40;;;;;;;18.30;10.50;;;0.30;99.90;;;;;;5099939;28;20471;-69
2021/12/03 06:55:11;;;;;;;18.50;10.85;;;0.20;99.90;;;;;;5108701;28;20050;-69
2021/12/03 06:57:41;;;;;;;18.75;10.95;;;0.20;99.90;;;;;;5106227;28;20053;-69
2021/12/03 07:00:10;;;;;;;20.13;10.45;;;0.20;99.90;;;;;;5092678;28;20047;-69
2021/12/03 07:02:37;;;;;;;18.48;10.88;;;0.20;99.90;;;;;;5106592;28;20114;-69
2021/12/03 07:05:07;;;;;;;17.95;10.95;;;0.10;99.90;;;;;;5108368;28;20032;-69
2021/12/03 07:07:34;;;;;;;20.25;10.88;;;0.00;99.90;;;;;;5111043;28;20490;-69
2021/12/03 07:10:04;;;;;;;16.75;9.73;;;0.00;99.90;;;;;;5111065;28;20040;-69
2021/12/03 07:12:31;;;;;;;19.67;10.63;;;0.00;99.90;;;;;;5106310;28;20581;-69
2021/12/03 07:14:59;;;;;;;20.13;11.40;;;0.00;99.90;;;;;;5109806;28;20039;-69
2021/12/03 07:17:30;;;;;;;22.63;10.85;;;0.10;99.90;;;;;;5107150;28;20471;-69
2021/12/03 07:19:58;;;;;;;19.15;11.07;;;0.10;99.90;;;;;;5107906;28;20525;-69
2021/12/03 07:22:27;;;;;;;18.70;10.55;;;0.20;99.90;;;;;;5103587;28;20123;-69
2021/12/03 07:24:54;;;;;;;17.13;10.07;;;0.30;99.90;;;;;;5106950;28;20044;-69
2021/12/03 07:27:23;;;;;;;17.83;10.32;;;0.40;99.90;;;;;;5108678;28;20050;-69
2021/12/03 07:29:50;;;;;;;20.70;10.75;;;0.50;99.90;;;;;;5109888;28;20044;-69
2021/12/03 07:32:20;;;;;;;17.73;10.25;;;0.50;99.90;;;;;;5108134;28;20131;-69
2021/12/03 07:34:48;;;;;;;17.67;10.18;;;0.60;99.90;;;;;;5108562;28;20039;-69
2021/12/03 07:37:16;;;;;;;16.73;9.85;;;0.70;99.90;;;;;;5107313;28;20047;-69
2021/12/03 07:39:44;;;;;;;18.92;9.73;;;0.80;99.90;;;;;;5107532;28;20036;-69
2021/12/03 07:42:12;;;;;;;17.90;10.82;;;0.80;99.90;;;;;;5078950;28;20040;-69
2021/12/03 07:44:40;;;;;;;15.82;8.82;;;0.90;99.90;;;;;;5090204;28;20051;-70
2021/12/03 07:47:08;;;;;;;18.45;9.95;;;0.90;99.90;;;;;;5101795;28;20055;-69
2021/12/03 07:49:38;;;;;;;15.95;8.85;;;0.90;99.90;;;;;;5086647;28;20097;-69
2021/12/03 07:52:05;;;;;;;16.55;9.95;;;0.90;99.90;;;;;;5102740;28;20482;-69
2021/12/03 07:54:33;;;;;;;15.60;9.02;;;0.90;99.90;;;;;;5111294;28;20038;-70
2021/12/03 07:57:00;;;;;;;14.75;8.82;;;0.80;99.90;;;;;;5081905;28;20035;-68
2021/12/03 07:59:27;;;;;;;14.30;8.05;;;0.90;99.90;;;;;;5109388;28;20048;-68
2021/12/03 08:01:54;;;;;;;16.08;9.48;;;0.90;99.90;;;;;;5109174;28;20629;-69
2021/12/03 08:04:22;;;;;;;16.40;8.95;;;0.90;99.90;;;;;;5075492;28;20055;-69
2021/12/03 08:06:54;;;;;;;17.13;8.82;;;0.90;99.90;;;;;;5107695;28;20047;-69
2021/12/03 08:09:23;;;;;;;15.32;8.38;;;1.00;99.90;;;;;;5080202;28;20047;-69
2021/12/03 08:11:50;;;;;;;15.18;8.85;;;1.00;99.90;;;;;;5106538;28;20166;-69
2021/12/03 08:14:17;;;;;;;15.00;8.45;;;1.00;99.90;;;;;;5104123;28;20117;-69
2021/12/03 08:16:45;;;;;;;18.88;8.95;;;1.10;99.90;;;;;;5109970;28;20085;-69
2021/12/03 08:19:12;;;;;;;15.90;8.35;;;1.00;99.90;;;;;;5104682;28;20105;-69
2021/12/03 08:21:39;;;;;;;16.15;9.00;;;1.00;99.90;;;;;;5105978;28;20044;-69
2021/12/03 08:24:07;;;;;;;14.32;7.88;;;1.10;99.90;;;;;;5107384;28;20043;-70
2021/12/03 08:26:34;;;;;;;18.73;9.93;;;1.10;99.90;;;;;;5106842;28;20035;-69
2021/12/03 08:29:04;;;;;;;14.98;9.07;;;1.10;99.90;;;;;;5103487;28;20036;-69
2021/12/03 08:31:32;;;;;;;16.00;9.20;;;1.10;99.90;;;;;;5109893;28;20058;-69
2021/12/03 08:33:59;;;;;;;15.57;9.30;;;1.10;99.90;;;;;;5093281;28;20046;-69
2021/12/03 08:36:26;;;;;;;16.60;8.73;;;1.20;99.90;;;;;;5112432;28;20047;-69
2021/12/03 08:38:54;;;;;;;17.40;9.75;;;1.30;99.90;;;;;;5113037;28;20406;-69
2021/12/03 08:41:21;;;;;;;15.55;9.13;;;1.30;99.90;;;;;;5105704;28;20067;-69
2021/12/03 08:43:49;;;;;;;14.70;9.15;;;1.40;99.90;;;;;;5111587;28;20036;-69
2021/12/03 08:46:23;;;;;;;16.05;8.80;;;1.50;99.90;;;;;;5113100;28;20028;-69
2021/12/03 08:48:51;;;;;;;13.63;9.00;;;1.50;99.90;;;;;;5112427;28;20051;-69
2021/12/03 08:56:32;;;;;;;16.75;9.50;;;1.70;99.90;;;;;;5109018;28;20040;-69
2021/12/03 08:58:59;;;;;;;14.38;9.38;;;1.70;99.90;;;;;;5101214;28;20063;-69
2021/12/03 09:01:27;;;;;;;16.75;9.60;;;1.70;99.90;;;;;;5109534;28;20036;-69
2021/12/03 09:03:55;;;;;;;13.63;9.13;;;1.70;99.90;;;;;;5092633;28;20050;-69
2021/12/03 09:06:23;;;;;;;13.75;9.38;;;1.70;99.90;;;;;;5078449;28;20386;-69
2021/12/03 09:08:50;;;;;;;15.02;9.00;;;1.70;99.90;;;;;;5094018;28;20059;-69
2021/12/03 09:11:19;;;;;;;14.57;9.05;;;1.80;99.90;;;;;;5107343;28;20110;-69
2021/12/03 09:13:49;;;;;;;13.95;8.52;;;1.80;99.90;;;;;;5110872;28;20721;-69
2021/12/03 09:16:19;;;;;;;15.00;9.30;;;1.80;99.90;;;;;;5098357;28;20095;-69
2021/12/03 09:18:48;;;;;;;16.27;10.00;;;1.80;99.90;;;;;;5108130;28;20403;-69
2021/12/03 09:21:25;;;;;;;16.50;9.65;;;1.90;99.90;;;;;;5084230;28;20509;-69
2021/12/03 09:24:06;;;;;;;15.93;9.73;;;1.90;99.90;;;;;;5100497;28;20128;-69
2021/12/03 09:26:38;;;;;;;14.35;9.35;;;2.00;99.90;;;;;;5104612;28;20038;-69
2021/12/03 09:29:08;;;;;;;13.60;8.88;;;1.90;99.90;;;;;;5108585;28;20063;-69
2021/12/03 09:31:37;;;;;;;14.18;8.60;;;1.80;99.90;;;;;;5099908;28;20051;-70
2021/12/03 09:34:14;;;;;;;13.70;7.97;;;1.60;99.90;;;;;;5113387;28;20043;-68
2021/12/03 09:36:43;;;;;;;14.95;9.20;;;1.60;99.90;;;;;;5100245;28;20131;-69
2021/12/03 09:39:17;;;;;;;18.27;9.35;;;1.60;99.90;;;;;;5105888;28;20758;-69
2021/12/03 09:41:44;;;;;;;15.55;9.55;;;1.70;99.90;;;;;;5094922;28;20479;-69
2021/12/03 09:44:12;;;;;;;14.32;9.18;;;1.80;99.90;;;;;;5106662;28;20502;-69
2021/12/03 09:46:39;;;;;;;14.85;9.30;;;1.80;99.90;;;;;;5103069;28;20036;-69
2021/12/03 09:51:49;;;;;;;14.38;9.85;;;1.90;99.90;;;;;;5098775;28;20040;-69
2021/12/03 09:56:49;;;;;;;15.98;9.85;;;2.20;99.90;;;;;;5092682;28;20347;-69
2021/12/03 10:12:51;;;;;;;17.30;10.82;;;2.50;99.90;;;;;;4989726;28;20046;-69
2021/12/03 10:18:11;;;;;;;17.90;10.38;;;2.50;99.90;;;;;;4997943;28;20405;-69
2021/12/03 10:20:53;;;;;;;19.58;10.23;;;2.60;99.90;;;;;;4991224;28;20525;-69
2021/12/03 10:37:21;;;;;;;12.60;7.28;;;4.60;99.90;;;;;;4989642;28;20058;-69
2021/12/03 10:53:24;;;;;;;13.73;7.40;;;4.90;99.90;;;;;;5096171;28;20439;-69
2021/12/03 11:39:44;;;;;;;7.90;4.97;;;2.90;99.90;;;;;;5090652;28;20048;-68
2021/12/03 12:11:10;;;;;;;9.32;4.25;;;2.70;99.90;;;;;;5108495;28;20047;-68
2021/12/03 12:14:45;;;;;;;12.65;4.63;;;2.60;99.90;;;;;;5099008;28;20040;-68
2021/12/03 12:28:59;;;;;;;8.32;4.20;;;2.00;99.90;;;;;;5110259;28;20051;-68
2021/12/03 12:34:09;;;;;;;12.98;4.80;;;1.90;99.90;;;;;;5117432;28;20093;-68
2021/12/03 12:44:44;;;;;;;6.95;4.00;;;1.90;99.90;;;;;;5113715;28;20050;-68
2021/12/03 12:59:40;;;;;;;8.98;4.05;;;1.90;99.90;;;;;;5056631;28;20045;-69
2021/12/03 13:07:29;;;;;;;11.02;4.00;;;1.80;99.90;;;;;;5058735;28;20041;-67
2021/12/03 14:42:24;;;;;;;8.25;4.70;;;3.00;99.90;;;;;;5091760;28;20093;-69
2021/12/03 14:44:56;;;;;;;12.07;4.75;;;2.80;99.90;;;;;;5102811;28;20036;-68
2021/12/03 14:52:43;;;;;;;8.30;4.63;;;2.30;99.90;;;;;;5104773;28;20402;-69
2021/12/03 14:55:10;;;;;;;54.75;26.25;;;2.20;99.90;;;;;;5103896;28;20048;-68
2021/12/03 14:57:50;;;;;;;9.27;5.20;;;2.10;99.90;;;;;;5098455;28;20032;-69
2021/12/03 15:03:03;;;;;;;17.70;5.85;;;1.80;99.90;;;;;;5110226;28;20044;-69
2021/12/03 15:08:48;;;;;;;9.32;5.03;;;1.70;99.90;;;;;;5095633;28;20483;-69
2021/12/03 15:30:40;;;;;;;11.32;5.53;;;1.40;99.90;;;;;;5018357;28;20038;-69
2021/12/03 15:33:34;;;;;;;11.60;6.07;;;1.50;99.90;;;;;;5027385;28;20049;-69
2021/12/03 15:36:11;;;;;;;14.38;6.95;;;1.40;99.90;;;;;;5027928;28;20096;-69
2021/12/03 15:38:46;;;;;;;11.43;6.53;;;1.40;99.90;;;;;;5027175;28;20072;-69
2021/12/03 16:08:16;;;;;;;12.30;6.80;;;1.30;99.90;;;;;;5085959;28;20058;-69
2021/12/03 16:10:53;;;;;;;14.48;6.70;;;1.30;99.90;;;;;;5111616;28;20046;-68
2021/12/03 16:19:17;;;;;;;14.15;7.70;;;1.20;99.90;;;;;;5047270;28;20053;-68
2021/12/03 16:24:51;;;;;;;14.35;6.95;;;1.20;99.90;;;;;;5042490;28;20048;-69
2021/12/03 16:54:13;;;;;;;12.75;7.88;;;0.70;99.90;;;;;;4992413;28;20058;-70
2021/12/03 16:56:50;;;;;;;14.75;7.65;;;0.80;99.90;;;;;;5044997;28;20144;-70
2021/12/03 16:59:18;;;;;;;14.98;7.47;;;0.80;99.90;;;;;;5001941;28;20054;-70
2021/12/03 17:10:38;;;;;;;16.55;8.05;;;0.90;99.90;;;;;;5012518;28;20053;-69
2021/12/03 17:45:54;;;;;;;13.27;7.60;;;1.10;99.90;;;;;;5102279;28;20070;-69
2021/12/03 17:51:10;;;;;;;17.77;7.97;;;1.10;99.90;;;;;;5112426;28;20054;-69
2021/12/03 17:56:18;;;;;;;18.88;8.77;;;1.00;99.90;;;;;;5093120;28;20043;-69
2021/12/03 17:58:49;;;;;;;18.95;8.27;;;1.00;99.90;;;;;;5111846;28;20047;-69
2021/12/03 18:04:11;;;;;;;12.05;7.10;;;1.00;99.90;;;;;;5060415;28;20384;-70
2021/12/03 18:55:32;;;;;;;15.00;8.23;;;0.90;99.90;;;;;;5098527;28;20066;-69
2021/12/03 18:58:02;;;;;;;;;;;0.90;99.90;;;;;;5089651;28;20122;-69
2021/12/03 19:00:33;;;;;;;16.42;8.63;;;0.90;99.90;;;;;;5092224;28;19923;-69
2021/12/03 19:03:05;;;;;;;20.17;8.18;;;0.80;99.90;;;;;;5103995;28;20118;-69
2021/12/03 19:06:19;;;;;;;;;;;0.90;99.90;;;;;;5103213;28;20441;-70
2021/12/03 19:11:34;;;;;;;15.90;8.60;;;0.80;99.90;;;;;;5086138;28;20035;-69
2021/12/03 19:13:55;;;;;;;18.23;8.35;;;0.70;99.90;;;;;;5100302;28;20054;-70
2021/12/03 19:16:24;;;;;;;20.98;9.30;;;0.80;99.90;;;;;;5104119;28;20044;-70
2021/12/03 19:18:54;;;;;;;16.88;9.20;;;0.80;99.90;;;;;;5090110;28;20058;-70
2021/12/03 19:21:26;;;;;;;14.60;8.57;;;0.80;99.90;;;;;;5105242;28;20149;-69
2021/12/03 19:23:59;;;;;;;18.15;9.73;;;0.80;99.90;;;;;;5106175;28;20382;-69
2021/12/03 19:26:28;;;;;;;15.13;9.18;;;0.80;99.90;;;;;;5102667;28;20035;-70
2021/12/03 19:28:56;;;;;;;22.60;9.32;;;0.80;99.90;;;;;;5106696;28;20135;-69
2021/12/03 19:31:24;;;;;;;16.40;9.70;;;0.90;99.90;;;;;;5105146;28;20039;-69
2021/12/03 19:33:52;;;;;;;17.52;9.25;;;0.80;99.90;;;;;;5088099;28;20051;-70
2021/12/03 19:36:24;;;;;;;17.77;8.75;;;0.70;99.90;;;;;;5091781;28;20040;-70
2021/12/03 19:38:57;;;;;;;17.40;9.05;;;0.80;99.90;;;;;;5102960;28;20051;-69
2021/12/03 19:43:58;;;;;;;16.48;9.70;;;0.70;99.90;;;;;;5096606;28;20391;-70
2021/12/03 19:46:30;;;;;;;16.48;9.23;;;0.60;99.90;;;;;;5063150;28;20043;-70
2021/12/03 19:49:08;;;;;;;20.05;9.45;;;0.60;99.90;;;;;;5098123;28;20036;-69
2021/12/03 19:51:43;;;;;;;19.23;10.75;;;0.60;99.90;;;;;;5079527;28;20119;-69
2021/12/03 19:54:10;;;;;;;14.00;8.68;;;0.60;99.90;;;;;;5110957;28;20039;-69
2021/12/03 19:56:40;;;;;;;15.43;9.43;;;0.60;99.90;;;;;;5110916;28;20517;-69
2021/12/03 19:59:08;;;;;;;18.83;10.57;;;0.60;99.90;;;;;;5111091;28;20050;-68
2021/12/03 20:01:37;;;;;;;18.33;9.77;;;0.60;99.90;;;;;;5104583;28;20050;-69
2021/12/03 20:04:07;;;;;;;16.17;9.27;;;0.50;99.90;;;;;;5096564;28;20040;-69
2021/12/03 20:06:36;;;;;;;16.83;9.23;;;0.50;99.90;;;;;;5107617;28;20050;-69
2021/12/03 20:09:06;;;;;;;15.90;9.55;;;0.50;99.90;;;;;;5091171;28;20055;-69
2021/12/03 20:11:41;;;;;;;19.13;9.10;;;0.50;99.90;;;;;;5090404;28;20505;-69
2021/12/03 20:14:13;;;;;;;17.13;9.25;;;0.40;99.90;;;;;;5107358;28;20398;-69
2021/12/03 20:16:52;;;;;;;15.93;9.38;;;0.30;99.90;;;;;;5104459;28;20052;-69
2021/12/03 20:21:55;;;;;;;17.75;9.57;;;0.30;99.90;;;;;;5092632;28;20138;-69
2021/12/03 20:29:41;;;;;;;16.17;9.13;;;0.30;99.90;;;;;;5107947;28;20032;-69
2021/12/03 20:40:24;;;;;;;18.92;9.20;;;0.30;99.90;;;;;;5058399;28;20052;-70
2021/12/03 20:50:40;;;;;;;15.90;8.27;;;0.40;99.90;;;;;;5114447;28;20055;-70
2021/12/03 21:09:39;;;;;;;16.48;9.10;;;0.30;99.90;;;;;;5114196;28;20043;-70
2021/12/03 21:12:16;;;;;;;22.60;12.70;;;0.30;99.90;;;;;;5095803;28;20047;-70